createdAt,value
2023-05-11T00:00:12.010Z,1010.97
2023-05-11T00:00:42.921Z,1010.96
2023-05-11T00:01:13.809Z,1010.97
2023-05-11T00:01:44.709Z,1010.97
2023-05-11T00:02:15.641Z,1010.95
2023-05-11T00:02:46.587Z,1010.95
2023-05-11T00:03:17.926Z,1010.95
2023-05-11T00:03:48.220Z,1010.94
2023-05-11T00:04:18.709Z,1010.94
2023-05-11T00:04:49.697Z,1010.92
2023-05-11T00:05:20.645Z,1010.91
2023-05-11T00:05:51.698Z,1010.91
2023-05-11T00:06:28.197Z,1010.89
2023-05-11T00:06:52.576Z,1010.91
2023-05-11T00:07:23.477Z,1010.90
2023-05-11T00:07:54.358Z,1010.90
2023-05-11T00:08:25.249Z,1010.89
2023-05-11T00:08:56.127Z,1010.90
2023-05-11T00:09:27.019Z,1010.89
2023-05-11T00:09:57.945Z,1010.90
2023-05-11T00:10:28.868Z,1010.90
2023-05-11T00:10:59.809Z,1010.89
2023-05-11T00:11:30.851Z,1010.87
2023-05-11T00:12:01.314Z,1010.86
2023-05-11T00:12:32.325Z,1010.86
2023-05-11T00:13:02.716Z,1010.86
2023-05-11T00:13:33.599Z,1010.85
2023-05-11T00:14:04.527Z,1010.85
2023-05-11T00:14:35.409Z,1010.85
2023-05-11T00:15:06.300Z,1010.85
2023-05-11T00:15:37.251Z,1010.87
2023-05-11T00:16:08.187Z,1010.84
2023-05-11T00:16:39.097Z,1010.83
2023-05-11T00:17:10.042Z,1010.82
2023-05-11T00:17:41.059Z,1010.82
2023-05-11T00:18:11.547Z,1010.82
2023-05-11T00:18:42.207Z,1010.82
2023-05-11T00:19:12.725Z,1010.83
2023-05-11T00:19:43.121Z,1010.82
2023-05-11T00:20:14.053Z,1010.82
2023-05-11T00:20:45.116Z,1010.81
2023-05-11T00:21:15.481Z,1010.81
2023-05-11T00:21:46.358Z,1010.79
2023-05-11T00:22:17.232Z,1010.81
2023-05-11T00:22:48.112Z,1010.81
2023-05-11T00:23:19.310Z,1010.79
2023-05-11T00:23:50.034Z,1010.80
2023-05-11T00:24:20.530Z,1010.80
2023-05-11T00:24:51.703Z,1010.79
2023-05-11T00:25:22.176Z,1010.77
2023-05-11T00:25:53.335Z,1010.78
2023-05-11T00:26:23.724Z,1010.79
2023-05-11T00:26:54.620Z,1010.79
2023-05-11T00:27:25.542Z,1010.78
2023-05-11T00:27:56.184Z,1010.77
2023-05-11T00:28:26.554Z,1010.77
2023-05-11T00:28:57.476Z,1010.77
2023-05-11T00:29:28.334Z,1010.76
2023-05-11T00:29:59.217Z,1010.75
2023-05-11T00:30:30.410Z,1010.76
2023-05-11T00:31:00.884Z,1010.75
2023-05-11T00:31:32.094Z,1010.77
2023-05-11T00:32:02.582Z,1010.75
2023-05-11T00:32:33.761Z,1010.75
2023-05-11T00:33:04.288Z,1010.76
2023-05-11T00:33:34.752Z,1010.77
2023-05-11T00:34:05.635Z,1010.73
2023-05-11T00:34:36.512Z,1010.75
2023-05-11T00:35:07.399Z,1010.74
2023-05-11T00:35:38.324Z,1010.73
2023-05-11T00:36:09.361Z,1010.75
2023-05-11T00:36:41.280Z,1010.77
2023-05-11T00:37:10.357Z,1010.77
2023-05-11T00:37:41.369Z,1010.76
2023-05-11T00:38:11.881Z,1010.77
2023-05-11T00:38:42.818Z,1010.78
2023-05-11T00:39:13.813Z,1010.77
2023-05-11T00:39:44.687Z,1010.76
2023-05-11T00:40:15.687Z,1010.75
2023-05-11T00:40:46.296Z,1010.77
2023-05-11T00:41:17.220Z,1010.78
2023-05-11T00:41:48.147Z,1010.77
2023-05-11T00:42:19.003Z,1010.78
2023-05-11T00:42:49.966Z,1010.80
2023-05-11T00:43:21.215Z,1010.82
2023-05-11T00:43:51.740Z,1010.82
2023-05-11T00:44:22.450Z,1010.79
2023-05-11T00:44:52.971Z,1010.77
2023-05-11T00:45:23.627Z,1010.77
2023-05-11T00:45:54.120Z,1010.77
2023-05-11T00:46:25.016Z,1010.77
2023-05-11T00:46:55.969Z,1010.77
2023-05-11T00:47:26.902Z,1010.78
2023-05-11T00:47:57.845Z,1010.79
2023-05-11T00:48:28.741Z,1010.80
2023-05-11T00:48:59.689Z,1010.78
2023-05-11T00:49:30.556Z,1010.79
2023-05-11T00:50:01.542Z,1010.79
2023-05-11T00:50:32.054Z,1010.79
2023-05-11T00:51:02.594Z,1010.77
2023-05-11T00:51:33.106Z,1010.78
2023-05-11T00:52:03.651Z,1010.78
2023-05-11T00:52:34.091Z,1010.77
2023-05-11T00:53:04.972Z,1010.78
2023-05-11T00:53:35.913Z,1010.76
2023-05-11T00:54:06.816Z,1010.77
2023-05-11T00:54:37.703Z,1010.78
2023-05-11T00:55:08.618Z,1010.78
2023-05-11T00:55:39.492Z,1010.76
2023-05-11T00:56:10.368Z,1010.79
2023-05-11T00:56:41.309Z,1010.77
2023-05-11T00:57:12.251Z,1010.80
2023-05-11T00:57:43.200Z,1010.80
2023-05-11T00:58:14.211Z,1010.81
2023-05-11T00:58:45.088Z,1010.78
2023-05-11T00:59:15.988Z,1010.80
2023-05-11T00:59:46.874Z,1010.78
2023-05-11T01:00:18.046Z,1010.82
2023-05-11T01:00:48.419Z,1010.79
2023-05-11T01:01:19.448Z,1010.80
2023-05-11T01:01:49.972Z,1010.79
2023-05-11T01:02:20.891Z,1010.82
2023-05-11T01:02:51.942Z,1010.80
2023-05-11T01:03:22.683Z,1010.79
2023-05-11T01:03:53.233Z,1010.80
2023-05-11T01:04:23.780Z,1010.78
2023-05-11T01:04:54.214Z,1010.76
2023-05-11T01:05:25.211Z,1010.77
2023-05-11T01:05:56.109Z,1010.75
2023-05-11T01:06:27.018Z,1010.74
2023-05-11T01:06:57.926Z,1010.71
2023-05-11T01:07:28.857Z,1010.70
2023-05-11T01:07:59.766Z,1010.71
2023-05-11T01:08:30.632Z,1010.71
2023-05-11T01:09:01.612Z,1010.71
2023-05-11T01:09:32.555Z,1010.71
2023-05-11T01:10:03.485Z,1010.70
2023-05-11T01:10:34.463Z,1010.71
2023-05-11T01:11:05.460Z,1010.71
2023-05-11T01:11:35.894Z,1010.71
2023-05-11T01:12:06.771Z,1010.72
2023-05-11T01:12:37.649Z,1010.70
2023-05-11T01:13:08.565Z,1010.70
2023-05-11T01:13:39.494Z,1010.69
2023-05-11T01:14:10.378Z,1010.69
2023-05-11T01:14:41.333Z,1010.68
2023-05-11T01:15:12.530Z,1010.68
2023-05-11T01:15:43.041Z,1010.67
2023-05-11T01:16:13.810Z,1010.66
2023-05-11T01:16:44.258Z,1010.65
2023-05-11T01:17:15.421Z,1010.67
2023-05-11T01:17:45.943Z,1010.67
2023-05-11T01:18:16.374Z,1010.70
2023-05-11T01:18:47.286Z,1010.67
2023-05-11T01:19:18.264Z,1010.66
2023-05-11T01:19:49.131Z,1010.67
2023-05-11T01:20:20.318Z,1010.69
2023-05-11T01:20:50.580Z,1010.67
2023-05-11T01:21:21.449Z,1010.70
2023-05-11T01:21:52.377Z,1010.70
2023-05-11T01:22:23.327Z,1010.68
2023-05-11T01:24:16.361Z,1010.66
2023-05-11T01:24:47.568Z,1010.68
2023-05-11T01:25:18.092Z,1010.68
2023-05-11T01:25:48.729Z,1010.66
2023-05-11T01:26:19.232Z,1010.66
2023-05-11T01:26:49.919Z,1010.67
2023-05-11T01:27:20.297Z,1010.67
2023-05-11T01:27:51.193Z,1010.65
2023-05-11T01:28:22.073Z,1010.64
2023-05-11T01:28:52.952Z,1010.67
2023-05-11T01:29:23.840Z,1010.65
2023-05-11T01:29:54.712Z,1010.66
2023-05-11T01:30:25.655Z,1010.66
2023-05-11T01:30:56.583Z,1010.65
2023-05-11T01:31:27.510Z,1010.64
2023-05-11T01:31:58.542Z,1010.63
2023-05-11T01:32:29.346Z,1010.64
2023-05-11T01:32:59.954Z,1010.62
2023-05-11T01:33:30.655Z,1010.64
2023-05-11T01:34:01.081Z,1010.64
2023-05-11T01:34:31.987Z,1010.64
2023-05-11T01:35:02.862Z,1010.64
2023-05-11T01:35:33.738Z,1010.65
2023-05-11T01:36:04.685Z,1010.66
2023-05-11T01:36:35.567Z,1010.66
2023-05-11T01:37:06.545Z,1010.64
2023-05-11T01:37:37.501Z,1010.65
2023-05-11T01:38:08.486Z,1010.65
2023-05-11T01:38:39.435Z,1010.66
2023-05-11T01:39:10.328Z,1010.66
2023-05-11T01:39:41.211Z,1010.66
2023-05-11T01:40:12.120Z,1010.65
2023-05-11T01:40:43.015Z,1010.65
2023-05-11T01:41:13.910Z,1010.65
2023-05-11T01:41:44.823Z,1010.65
2023-05-11T01:42:15.707Z,1010.64
2023-05-11T01:42:46.607Z,1010.67
2023-05-11T01:43:17.615Z,1010.66
2023-05-11T01:43:48.538Z,1010.65
2023-05-11T01:44:19.468Z,1010.66
2023-05-11T01:44:50.435Z,1010.66
2023-05-11T01:45:21.349Z,1010.64
2023-05-11T01:45:52.254Z,1010.64
2023-05-11T01:46:23.205Z,1010.63
2023-05-11T01:46:53.713Z,1010.64
2023-05-11T01:47:24.618Z,1010.64
2023-05-11T01:47:55.578Z,1010.64
2023-05-11T01:48:26.024Z,1010.64
2023-05-11T01:48:56.917Z,1010.65
2023-05-11T01:49:27.876Z,1010.66
2023-05-11T01:49:58.848Z,1010.66
2023-05-11T01:50:29.778Z,1010.65
2023-05-11T01:51:00.965Z,1010.66
2023-05-11T01:51:31.465Z,1010.65
2023-05-11T01:52:02.347Z,1010.66
2023-05-11T01:52:33.272Z,1010.67
2023-05-11T01:53:04.197Z,1010.67
2023-05-11T01:53:35.083Z,1010.68
2023-05-11T01:54:06.018Z,1010.68
2023-05-11T01:54:37.055Z,1010.68
2023-05-11T01:55:07.426Z,1010.68
2023-05-11T01:55:38.492Z,1010.68
2023-05-11T01:56:08.904Z,1010.68
2023-05-11T01:56:39.842Z,1010.67
2023-05-11T01:57:10.779Z,1010.68
2023-05-11T01:57:41.753Z,1010.68
2023-05-11T01:58:12.629Z,1010.68
2023-05-11T01:58:43.530Z,1010.68
2023-05-11T01:59:14.458Z,1010.69
2023-05-11T01:59:45.373Z,1010.69
2023-05-11T02:00:16.402Z,1010.70
2023-05-11T02:00:46.806Z,1010.68
2023-05-11T02:01:17.763Z,1010.68
2023-05-11T02:01:48.767Z,1010.69
2023-05-11T02:02:19.278Z,1010.67
2023-05-11T02:02:50.301Z,1010.67
2023-05-11T02:03:20.962Z,1010.67
2023-05-11T02:03:51.567Z,1010.68
2023-05-11T02:04:22.220Z,1010.67
2023-05-11T02:04:53.111Z,1010.69
2023-05-11T02:05:24.951Z,1010.68
2023-05-11T02:05:54.554Z,1010.68
2023-05-11T02:06:25.445Z,1010.69
2023-05-11T02:06:56.360Z,1010.70
2023-05-11T02:07:27.259Z,1010.72
2023-05-11T02:07:58.160Z,1010.71
2023-05-11T02:08:29.127Z,1010.72
2023-05-11T02:09:00.145Z,1010.70
2023-05-11T02:09:30.641Z,1010.71
2023-05-11T02:10:01.658Z,1010.72
2023-05-11T02:10:32.181Z,1010.72
2023-05-11T02:11:03.067Z,1010.71
2023-05-11T02:11:34.003Z,1010.70
2023-05-11T02:12:04.916Z,1010.68
2023-05-11T02:12:35.803Z,1010.71
2023-05-11T02:13:06.679Z,1010.70
2023-05-11T02:13:37.756Z,1010.69
2023-05-11T02:14:08.202Z,1010.67
2023-05-11T02:14:39.109Z,1010.68
2023-05-11T02:15:10.237Z,1010.68
2023-05-11T02:15:40.828Z,1010.65
2023-05-11T02:16:11.614Z,1010.67
2023-05-11T02:16:42.137Z,1010.66
2023-05-11T02:17:12.773Z,1010.66
2023-05-11T02:17:43.191Z,1010.67
2023-05-11T02:18:14.101Z,1010.68
2023-05-11T02:18:45.060Z,1010.68
2023-05-11T02:19:15.971Z,1010.70
2023-05-11T02:19:46.839Z,1010.69
2023-05-11T02:20:17.977Z,1010.70
2023-05-11T02:20:48.634Z,1010.70
2023-05-11T02:21:19.354Z,1010.70
2023-05-11T02:21:49.862Z,1010.70
2023-05-11T02:22:20.299Z,1010.72
2023-05-11T02:22:51.248Z,1010.71
2023-05-11T02:23:22.283Z,1010.70
2023-05-11T02:23:52.786Z,1010.70
2023-05-11T02:24:23.680Z,1010.70
2023-05-11T02:24:54.547Z,1010.71
2023-05-11T02:25:25.436Z,1010.71
2023-05-11T02:25:56.337Z,1010.69
2023-05-11T02:26:27.222Z,1010.69
2023-05-11T02:26:58.343Z,1010.69
2023-05-11T02:27:28.852Z,1010.67
2023-05-11T02:27:59.730Z,1010.67
2023-05-11T02:28:30.660Z,1010.69
2023-05-11T02:29:01.681Z,1010.72
2023-05-11T02:29:32.204Z,1010.70
2023-05-11T02:30:02.828Z,1010.71
2023-05-11T02:30:33.337Z,1010.70
2023-05-11T02:31:04.264Z,1010.69
2023-05-11T02:31:35.220Z,1010.73
2023-05-11T02:32:06.118Z,1010.71
2023-05-11T02:32:37.093Z,1010.70
2023-05-11T02:33:08.079Z,1010.71
2023-05-11T02:33:38.509Z,1010.71
2023-05-11T02:34:09.452Z,1010.72
2023-05-11T02:34:40.386Z,1010.72
2023-05-11T02:35:11.321Z,1010.71
2023-05-11T02:35:42.317Z,1010.70
2023-05-11T02:36:12.812Z,1010.68
2023-05-11T02:36:43.701Z,1010.69
2023-05-11T02:37:14.610Z,1010.69
2023-05-11T02:37:45.529Z,1010.68
2023-05-11T02:38:16.493Z,1010.70
2023-05-11T02:38:47.384Z,1010.70
2023-05-11T02:39:18.286Z,1010.70
2023-05-11T02:39:49.197Z,1010.70
2023-05-11T02:40:20.458Z,1010.71
2023-05-11T02:40:50.785Z,1010.70
2023-05-11T02:41:21.241Z,1010.70
2023-05-11T02:41:51.822Z,1010.70
2023-05-11T02:42:22.208Z,1010.69
2023-05-11T02:42:53.122Z,1010.68
2023-05-11T02:43:23.989Z,1010.68
2023-05-11T02:43:54.865Z,1010.65
2023-05-11T02:44:25.802Z,1010.64
2023-05-11T02:44:56.689Z,1010.65
2023-05-11T02:45:27.603Z,1010.65
2023-05-11T02:45:58.472Z,1010.62
2023-05-11T02:46:29.714Z,1010.62
2023-05-11T02:47:00.246Z,1010.61
2023-05-11T02:47:31.163Z,1010.63
2023-05-11T02:48:01.724Z,1010.62
2023-05-11T02:48:32.659Z,1010.60
2023-05-11T02:49:03.618Z,1010.59
2023-05-11T02:49:34.495Z,1010.58
2023-05-11T02:50:05.380Z,1010.57
2023-05-11T02:50:36.276Z,1010.58
2023-05-11T02:51:07.148Z,1010.57
2023-05-11T02:51:38.038Z,1010.57
2023-05-11T02:52:08.947Z,1010.58
2023-05-11T02:52:39.863Z,1010.59
2023-05-11T02:53:10.730Z,1010.61
2023-05-11T02:53:41.750Z,1010.59
2023-05-11T02:54:12.240Z,1010.58
2023-05-11T02:54:43.227Z,1010.57
2023-05-11T02:55:14.170Z,1010.55
2023-05-11T02:55:45.044Z,1010.55
2023-05-11T02:56:15.938Z,1010.54
2023-05-11T02:56:46.809Z,1010.53
2023-05-11T02:57:17.710Z,1010.54
2023-05-11T02:57:48.604Z,1010.50
2023-05-11T02:58:19.606Z,1010.50
2023-05-11T02:58:50.486Z,1010.51
2023-05-11T02:59:21.686Z,1010.49
2023-05-11T02:59:52.084Z,1010.53
2023-05-11T03:00:23.245Z,1010.51
2023-05-11T03:00:53.768Z,1010.52
2023-05-11T03:01:24.520Z,1010.51
2023-05-11T03:01:54.842Z,1010.50
2023-05-11T03:02:25.617Z,1010.50
2023-05-11T03:02:56.272Z,1010.50
2023-05-11T03:03:26.928Z,1010.49
2023-05-11T03:03:57.533Z,1010.49
2023-05-11T03:04:28.463Z,1010.48
2023-05-11T03:04:59.419Z,1010.49
2023-05-11T03:05:30.305Z,1010.48
2023-05-11T03:06:01.303Z,1010.46
2023-05-11T03:06:32.267Z,1010.48
2023-05-11T03:07:03.198Z,1010.47
2023-05-11T03:07:34.218Z,1010.47
2023-05-11T03:08:04.667Z,1010.47
2023-05-11T03:08:35.558Z,1010.47
2023-05-11T03:09:08.503Z,1010.49
2023-05-11T03:09:37.525Z,1010.49
2023-05-11T03:10:07.887Z,1010.48
2023-05-11T03:10:38.778Z,1010.49
2023-05-11T03:11:09.642Z,1010.49
2023-05-11T03:11:40.657Z,1010.50
2023-05-11T03:12:11.302Z,1010.49
2023-05-11T03:12:41.821Z,1010.50
2023-05-11T03:13:12.959Z,1010.50
2023-05-11T03:13:43.458Z,1010.48
2023-05-11T03:14:14.601Z,1010.49
2023-05-11T03:14:45.101Z,1010.50
2023-05-11T03:15:16.076Z,1010.50
2023-05-11T03:15:46.990Z,1010.50
2023-05-11T03:16:20.435Z,1010.51
2023-05-11T03:16:48.611Z,1010.53
2023-05-11T03:17:19.548Z,1010.52
2023-05-11T03:17:50.522Z,1010.52
2023-05-11T03:18:21.521Z,1010.50
2023-05-11T03:18:52.561Z,1010.49
2023-05-11T03:19:22.998Z,1010.51
2023-05-11T03:19:53.911Z,1010.51
2023-05-11T03:20:24.855Z,1010.52
2023-05-11T03:20:55.852Z,1010.50
2023-05-11T03:21:26.741Z,1010.49
2023-05-11T03:21:57.640Z,1010.48
2023-05-11T03:22:28.532Z,1010.47
2023-05-11T03:22:59.614Z,1010.47
2023-05-11T03:23:30.004Z,1010.47
2023-05-11T03:24:00.894Z,1010.45
2023-05-11T03:24:31.824Z,1010.44
2023-05-11T03:25:02.851Z,1010.45
2023-05-11T03:25:33.284Z,1010.45
2023-05-11T03:26:04.206Z,1010.46
2023-05-11T03:26:35.200Z,1010.43
2023-05-11T03:27:06.126Z,1010.45
2023-05-11T03:27:37.046Z,1010.45
2023-05-11T03:28:07.975Z,1010.45
2023-05-11T03:28:38.887Z,1010.42
2023-05-11T03:29:09.872Z,1010.42
2023-05-11T03:29:40.731Z,1010.43
2023-05-11T03:30:11.758Z,1010.44
2023-05-11T03:30:42.215Z,1010.42
2023-05-11T03:31:13.163Z,1010.42
2023-05-11T03:31:44.106Z,1010.42
2023-05-11T03:32:15.139Z,1010.41
2023-05-11T03:32:45.682Z,1010.41
2023-05-11T03:33:16.215Z,1010.43
2023-05-11T03:33:47.085Z,1010.44
2023-05-11T03:34:17.973Z,1010.45
2023-05-11T03:34:48.874Z,1010.43
2023-05-11T03:35:19.751Z,1010.44
2023-05-11T03:35:50.610Z,1010.45
2023-05-11T03:36:21.480Z,1010.44
2023-05-11T03:36:52.614Z,1010.43
2023-05-11T03:37:23.038Z,1010.41
2023-05-11T03:37:53.973Z,1010.40
2023-05-11T03:38:24.961Z,1010.38
2023-05-11T03:38:55.529Z,1010.37
2023-05-11T03:39:26.083Z,1010.37
2023-05-11T03:39:56.528Z,1010.39
2023-05-11T03:40:27.428Z,1010.38
2023-05-11T03:40:58.348Z,1010.40
2023-05-11T03:41:29.307Z,1010.35
2023-05-11T03:42:00.197Z,1010.35
2023-05-11T03:42:31.068Z,1010.37
2023-05-11T03:43:02.100Z,1010.37
2023-05-11T03:43:32.553Z,1010.37
2023-05-11T03:44:03.780Z,1010.34
2023-05-11T03:44:34.282Z,1010.35
2023-05-11T03:45:05.219Z,1010.34
2023-05-11T03:45:36.152Z,1010.34
2023-05-11T03:46:07.105Z,1010.33
2023-05-11T03:46:37.564Z,1010.34
2023-05-11T03:47:08.473Z,1010.33
2023-05-11T03:47:39.417Z,1010.31
2023-05-11T03:48:10.430Z,1010.32
2023-05-11T03:48:41.285Z,1010.31
2023-05-11T03:49:13.728Z,1010.32
2023-05-11T03:49:43.154Z,1010.31
2023-05-11T03:50:14.090Z,1010.29
2023-05-11T03:50:45.089Z,1010.31
2023-05-11T03:51:16.065Z,1010.31
2023-05-11T03:51:47.061Z,1010.32
2023-05-11T03:52:17.489Z,1010.31
2023-05-11T03:52:48.336Z,1010.28
2023-05-11T03:53:19.163Z,1010.29
2023-05-11T03:53:49.985Z,1010.30
2023-05-11T03:54:20.816Z,1010.30
2023-05-11T03:54:51.701Z,1010.29
2023-05-11T03:55:22.589Z,1010.30
2023-05-11T03:55:53.510Z,1010.30
2023-05-11T03:56:24.408Z,1010.32
2023-05-11T03:56:55.379Z,1010.32
2023-05-11T03:57:26.379Z,1010.31
2023-05-11T03:57:56.829Z,1010.30
2023-05-11T03:58:27.715Z,1010.30
2023-05-11T03:58:58.615Z,1010.29
2023-05-11T03:59:29.495Z,1010.30
2023-05-11T04:00:00.388Z,1010.31
2023-05-11T04:00:31.311Z,1010.32
2023-05-11T04:01:02.143Z,1010.33
2023-05-11T04:01:33.153Z,1010.32
2023-05-11T04:02:03.593Z,1010.33
2023-05-11T04:02:34.642Z,1010.34
2023-05-11T04:03:05.244Z,1010.36
2023-05-11T04:03:35.964Z,1010.33
2023-05-11T04:04:06.702Z,1010.33
2023-05-11T04:04:37.267Z,1010.34
2023-05-11T04:05:07.816Z,1010.32
2023-05-11T04:05:38.224Z,1010.31
2023-05-11T04:06:09.191Z,1010.28
2023-05-11T04:06:40.079Z,1010.28
2023-05-11T04:07:11.021Z,1010.30
2023-05-11T04:07:41.874Z,1010.28
2023-05-11T04:08:12.721Z,1010.28
2023-05-11T04:08:43.685Z,1010.28
2023-05-11T04:09:14.939Z,1010.28
2023-05-11T04:09:45.430Z,1010.29
2023-05-11T04:10:16.690Z,1010.29
2023-05-11T04:10:47.290Z,1010.27
2023-05-11T04:11:18.380Z,1010.30
2023-05-11T04:11:48.707Z,1010.28
2023-05-11T04:12:19.559Z,1010.28
2023-05-11T04:12:50.422Z,1010.27
2023-05-11T04:13:21.280Z,1010.27
2023-05-11T04:13:52.096Z,1010.27
2023-05-11T04:14:22.924Z,1010.26
2023-05-11T04:14:53.832Z,1010.26
2023-05-11T04:15:24.731Z,1010.26
2023-05-11T04:15:55.604Z,1010.26
2023-05-11T04:16:26.501Z,1010.26
2023-05-11T04:16:57.489Z,1010.25
2023-05-11T04:17:28.404Z,1010.25
2023-05-11T04:17:59.316Z,1010.25
2023-05-11T04:18:30.155Z,1010.25
2023-05-11T04:19:01.289Z,1010.25
2023-05-11T04:19:31.738Z,1010.23
2023-05-11T04:20:02.569Z,1010.20
2023-05-11T04:20:33.396Z,1010.24
2023-05-11T04:21:04.303Z,1010.24
2023-05-11T04:21:35.257Z,1010.23
2023-05-11T04:22:06.185Z,1010.24
2023-05-11T04:22:37.088Z,1010.25
2023-05-11T04:23:10.221Z,1010.24
2023-05-11T04:23:38.584Z,1010.24
2023-05-11T04:24:09.419Z,1010.24
2023-05-11T04:24:40.240Z,1010.25
2023-05-11T04:25:11.087Z,1010.25
2023-05-11T04:25:41.913Z,1010.26
2023-05-11T04:26:12.764Z,1010.26
2023-05-11T04:26:43.672Z,1010.26
2023-05-11T04:27:14.665Z,1010.27
2023-05-11T04:27:45.173Z,1010.27
2023-05-11T04:28:16.070Z,1010.26
2023-05-11T04:28:46.938Z,1010.25
2023-05-11T04:29:17.897Z,1010.26
2023-05-11T04:29:48.795Z,1010.25
2023-05-11T04:30:19.822Z,1010.24
2023-05-11T04:30:50.367Z,1010.26
2023-05-11T04:31:21.217Z,1010.25
2023-05-11T04:31:52.233Z,1010.25
2023-05-11T04:32:22.696Z,1010.27
2023-05-11T04:32:53.648Z,1010.26
2023-05-11T04:33:24.516Z,1010.27
2023-05-11T04:33:55.380Z,1010.26
2023-05-11T04:34:27.113Z,1010.28
2023-05-11T04:34:57.078Z,1010.26
2023-05-11T04:35:28.005Z,1010.26
2023-05-11T04:35:58.979Z,1010.28
2023-05-11T04:36:29.441Z,1010.26
2023-05-11T04:37:00.276Z,1010.26
2023-05-11T04:37:31.158Z,1010.25
2023-05-11T04:38:01.986Z,1010.26
2023-05-11T04:38:32.810Z,1010.28
2023-05-11T04:39:03.683Z,1010.26
2023-05-11T04:39:34.565Z,1010.24
2023-05-11T04:40:05.139Z,1010.25
2023-05-11T04:40:36.022Z,1010.27
2023-05-11T04:41:07.154Z,1010.27
2023-05-11T04:41:37.613Z,1010.27
2023-05-11T04:42:08.550Z,1010.26
2023-05-11T04:42:39.669Z,1010.26
2023-05-11T04:43:10.003Z,1010.26
2023-05-11T04:43:40.876Z,1010.28
2023-05-11T04:44:11.791Z,1010.28
2023-05-11T04:44:42.672Z,1010.29
2023-05-11T04:45:13.564Z,1010.28
2023-05-11T04:45:44.402Z,1010.27
2023-05-11T04:46:15.301Z,1010.29
2023-05-11T04:46:46.236Z,1010.27
2023-05-11T04:47:17.160Z,1010.25
2023-05-11T04:47:48.092Z,1010.25
2023-05-11T04:48:20.840Z,1010.26
2023-05-11T04:48:49.594Z,1010.27
2023-05-11T04:49:20.456Z,1010.25
2023-05-11T04:49:51.302Z,1010.26
2023-05-11T04:50:22.212Z,1010.26
2023-05-11T04:50:53.071Z,1010.26
2023-05-11T04:51:23.965Z,1010.26
2023-05-11T04:51:54.816Z,1010.26
2023-05-11T04:52:25.698Z,1010.28
2023-05-11T04:52:56.764Z,1010.25
2023-05-11T04:53:27.241Z,1010.28
2023-05-11T04:53:58.165Z,1010.26
2023-05-11T04:54:29.048Z,1010.28
2023-05-11T04:54:59.967Z,1010.27
2023-05-11T04:55:30.843Z,1010.28
2023-05-11T04:56:01.696Z,1010.28
2023-05-11T04:56:32.585Z,1010.28
2023-05-11T04:57:03.448Z,1010.29
2023-05-11T04:57:34.302Z,1010.31
2023-05-11T04:58:05.141Z,1010.29
2023-05-11T04:58:36.086Z,1010.28
2023-05-11T04:59:06.973Z,1010.28
2023-05-11T04:59:37.954Z,1010.30
2023-05-11T05:00:08.560Z,1010.28
2023-05-11T05:00:39.336Z,1010.27
2023-05-11T05:01:10.308Z,1010.28
2023-05-11T05:01:41.201Z,1010.26
2023-05-11T05:02:12.051Z,1010.25
2023-05-11T05:02:42.931Z,1010.25
2023-05-11T05:03:13.851Z,1010.26
2023-05-11T05:03:44.713Z,1010.27
2023-05-11T05:04:15.689Z,1010.29
2023-05-11T05:04:46.498Z,1010.27
2023-05-11T05:05:16.992Z,1010.29
2023-05-11T05:05:48.079Z,1010.28
2023-05-11T05:06:18.839Z,1010.29
2023-05-11T05:06:50.035Z,1010.30
2023-05-11T05:07:20.483Z,1010.30
2023-05-11T05:07:51.297Z,1010.30
2023-05-11T05:08:22.290Z,1010.30
2023-05-11T05:08:52.797Z,1010.29
2023-05-11T05:09:23.613Z,1010.30
2023-05-11T05:09:54.438Z,1010.29
2023-05-11T05:10:25.300Z,1010.30
2023-05-11T05:10:56.550Z,1010.31
2023-05-11T05:11:27.029Z,1010.30
2023-05-11T05:11:58.274Z,1010.30
2023-05-11T05:12:28.808Z,1010.30
2023-05-11T05:12:59.825Z,1010.31
2023-05-11T05:13:29.785Z,1010.31
2023-05-11T05:14:00.928Z,1010.32
2023-05-11T05:14:31.279Z,1010.32
2023-05-11T05:15:02.120Z,1010.30
2023-05-11T05:15:32.960Z,1010.28
2023-05-11T05:16:03.880Z,1010.30
2023-05-11T05:16:34.772Z,1010.30
2023-05-11T05:17:05.384Z,1010.29
2023-05-11T05:17:35.812Z,1010.27
2023-05-11T05:18:06.710Z,1010.29
2023-05-11T05:18:37.713Z,1010.28
2023-05-11T05:19:08.236Z,1010.28
2023-05-11T05:19:38.740Z,1010.28
2023-05-11T05:20:09.757Z,1010.28
2023-05-11T05:20:40.224Z,1010.30
2023-05-11T05:21:11.140Z,1010.31
2023-05-11T05:21:41.965Z,1010.29
2023-05-11T05:22:12.791Z,1010.27
2023-05-11T05:22:43.681Z,1010.28
2023-05-11T05:23:14.580Z,1010.28
2023-05-11T05:23:45.490Z,1010.27
2023-05-11T05:24:16.345Z,1010.27
2023-05-11T05:24:47.479Z,1010.29
2023-05-11T05:25:17.881Z,1010.29
2023-05-11T05:25:48.890Z,1010.27
2023-05-11T05:26:19.804Z,1010.27
2023-05-11T05:26:50.702Z,1010.28
2023-05-11T05:27:21.729Z,1010.31
2023-05-11T05:27:52.083Z,1010.32
2023-05-11T05:28:23.064Z,1010.30
2023-05-11T05:28:53.449Z,1010.30
2023-05-11T05:29:24.287Z,1010.30
2023-05-11T05:29:55.307Z,1010.31
2023-05-11T05:30:25.625Z,1010.32
2023-05-11T05:30:56.560Z,1010.32
2023-05-11T05:31:27.469Z,1010.33
2023-05-11T05:31:57.856Z,1010.33
2023-05-11T05:32:28.839Z,1010.32
2023-05-11T05:32:59.396Z,1010.31
2023-05-11T05:33:30.612Z,1010.30
2023-05-11T05:34:01.110Z,1010.31
2023-05-11T05:34:31.982Z,1010.33
2023-05-11T05:35:02.809Z,1010.32
2023-05-11T05:35:33.661Z,1010.35
2023-05-11T05:36:04.533Z,1010.36
2023-05-11T05:36:35.489Z,1010.35
2023-05-11T05:37:06.337Z,1010.34
2023-05-11T05:37:37.192Z,1010.35
2023-05-11T05:38:08.091Z,1010.33
2023-05-11T05:38:39.087Z,1010.34
2023-05-11T05:39:10.249Z,1010.33
2023-05-11T05:39:40.622Z,1010.34
2023-05-11T05:40:11.631Z,1010.36
2023-05-11T05:40:42.039Z,1010.35
2023-05-11T05:41:12.876Z,1010.35
2023-05-11T05:41:43.732Z,1010.38
2023-05-11T05:42:14.585Z,1010.40
2023-05-11T05:42:45.405Z,1010.40
2023-05-11T05:43:16.298Z,1010.39
2023-05-11T05:43:47.185Z,1010.40
2023-05-11T05:44:18.056Z,1010.38
2023-05-11T05:44:49.105Z,1010.41
2023-05-11T05:45:20.100Z,1010.40
2023-05-11T05:45:50.835Z,1010.41
2023-05-11T05:46:21.383Z,1010.40
2023-05-11T05:46:52.124Z,1010.39
2023-05-11T05:47:22.676Z,1010.39
2023-05-11T05:47:53.205Z,1010.39
2023-05-11T05:48:23.882Z,1010.38
2023-05-11T05:48:54.801Z,1010.39
2023-05-11T05:49:25.665Z,1010.40
2023-05-11T05:49:56.520Z,1010.40
2023-05-11T05:50:27.392Z,1010.40
2023-05-11T05:50:58.350Z,1010.41
2023-05-11T05:51:29.314Z,1010.39
2023-05-11T05:52:00.319Z,1010.41
2023-05-11T05:52:31.201Z,1010.41
2023-05-11T05:53:02.166Z,1010.40
2023-05-11T05:53:32.744Z,1010.43
2023-05-11T05:54:03.561Z,1010.43
2023-05-11T05:54:34.550Z,1010.42
2023-05-11T05:55:05.375Z,1010.43
2023-05-11T05:55:36.246Z,1010.43
2023-05-11T05:56:07.133Z,1010.46
2023-05-11T05:56:37.976Z,1010.46
2023-05-11T05:57:08.981Z,1010.46
2023-05-11T05:57:39.430Z,1010.45
2023-05-11T05:58:10.264Z,1010.46
2023-05-11T05:58:41.529Z,1010.45
2023-05-11T05:59:11.847Z,1010.44
2023-05-11T05:59:42.236Z,1010.45
2023-05-11T06:00:13.558Z,1010.43
2023-05-11T06:00:43.900Z,1010.42
2023-05-11T06:01:14.737Z,1010.45
2023-05-11T06:01:45.629Z,1010.45
2023-05-11T06:02:16.500Z,1010.46
2023-05-11T06:02:47.433Z,1010.46
2023-05-11T06:03:18.159Z,1010.49
2023-05-11T06:03:48.922Z,1010.49
2023-05-11T06:04:19.341Z,1010.50
2023-05-11T06:04:49.846Z,1010.50
2023-05-11T06:05:21.124Z,1010.51
2023-05-11T06:05:51.533Z,1010.52
2023-05-11T06:06:22.614Z,1010.50
2023-05-11T06:06:53.068Z,1010.50
2023-05-11T06:07:23.969Z,1010.50
2023-05-11T06:08:09.104Z,1010.50
2023-05-11T06:08:25.641Z,1010.54
2023-05-11T06:08:56.508Z,1010.53
2023-05-11T06:09:27.390Z,1010.53
2023-05-11T06:09:58.238Z,1010.53
2023-05-11T06:10:29.176Z,1010.53
2023-05-11T06:10:59.714Z,1010.51
2023-05-11T06:11:30.786Z,1010.50
2023-05-11T06:12:01.514Z,1010.51
2023-05-11T06:12:31.764Z,1010.49
2023-05-11T06:13:02.866Z,1010.50
2023-05-11T06:13:33.378Z,1010.49
2023-05-11T06:14:04.057Z,1010.46